Time;durP1;ratioP1;P1;durP2;ratioP2;P2;SDS_P1;SDS_P2;PMS_P1;PMS_P2;Temp;Humidity;BMP_temperature;BMP_pressure;BME280_temperature;BME280_humidity;BME280_pressure;Samples;Min_cycle;Max_cycle;Signal;HPM_P1;HPM_P2
2021/07/17 00:00:06;;;;;;;5.40;4.30;;;;;;;;;;4958135;28;20043;-79
2021/07/17 00:02:33;;;;;;;5.93;4.22;;;;;;;;;;4940319;29;20048;-79
2021/07/17 00:05:00;;;;;;;6.05;4.75;;;;;;;;;;4941075;29;20047;-79
2021/07/17 00:07:27;;;;;;;6.57;4.80;;;;;;;;;;4941926;29;20494;-79
2021/07/17 00:09:54;;;;;;;6.07;4.95;;;;;;;;;;4942282;29;20086;-79
2021/07/17 00:12:21;;;;;;;5.40;4.65;;;;;;;;;;4941181;29;20076;-79
2021/07/17 00:14:47;;;;;;;5.80;4.80;;;;;;;;;;4941366;29;20044;-79
2021/07/17 00:17:15;;;;;;;7.18;5.68;;;;;;;;;;4941476;29;20076;-79
2021/07/17 00:19:42;;;;;;;5.43;4.50;;;;;;;;;;4942177;29;20056;-79
2021/07/17 00:22:09;;;;;;;7.18;5.45;;;;;;;;;;4941793;29;20055;-79
2021/07/17 00:24:39;;;;;;;5.28;4.75;;;;;;;;;;4940869;29;20056;-79
2021/07/17 00:27:05;;;;;;;6.25;4.97;;;;;;;;;;4941747;29;20135;-81
2021/07/17 00:29:32;;;;;;;6.20;5.10;;;;;;;;;;4940742;29;20044;-80
2021/07/17 00:31:59;;;;;;;5.55;4.88;;;;;;;;;;4941330;29;20060;-80
2021/07/17 00:34:27;;;;;;;6.50;4.63;;;;;;;;;;4944971;29;20107;-80
2021/07/17 00:36:54;;;;;;;8.15;5.93;;;;;;;;;;4942230;29;20051;-81
2021/07/17 00:39:21;;;;;;;6.05;5.22;;;;;;;;;;4940879;29;20497;-80
2021/07/17 00:41:47;;;;;;;6.20;5.00;;;;;;;;;;4939930;29;20072;-80
2021/07/17 00:44:14;;;;;;;6.00;5.40;;;;;;;;;;4939473;29;20054;-80
2021/07/17 00:46:43;;;;;;;6.40;5.55;;;;;;;;;;4952804;23;20043;-76
2021/07/17 00:49:10;;;;;;;7.75;5.72;;;;;;;;;;4955034;29;20043;-77
2021/07/17 00:51:38;;;;;;;6.22;5.63;;;;;;;;;;4954809;29;20051;-78
2021/07/17 00:54:05;;;;;;;6.95;5.25;;;;;;;;;;4954658;29;20575;-77
2021/07/17 00:56:34;;;;;;;6.30;5.40;;;;;;;;;;4950540;29;20051;-77
2021/07/17 00:59:05;;;;;;;6.10;5.03;;;;;;;;;;4935634;29;20062;-78
2021/07/17 01:01:33;;;;;;;;;;;;;;;;;;4936099;29;20047;-77
2021/07/17 01:04:00;;;;;;;6.68;5.32;;;;;;;;;;4935715;29;19965;-77
2021/07/17 01:06:27;;;;;;;6.82;5.50;;;;;;;;;;4935370;29;20107;-77
2021/07/17 01:08:55;;;;;;;6.93;5.68;;;;;;;;;;4935887;29;20048;-77
2021/07/17 01:11:22;;;;;;;6.40;5.50;;;;;;;;;;4935721;29;20052;-76
2021/07/17 01:13:49;;;;;;;6.68;5.97;;;;;;;;;;4935552;29;20051;-77
2021/07/17 01:16:16;;;;;;;6.78;5.78;;;;;;;;;;4934956;29;20119;-77
2021/07/17 01:18:44;;;;;;;7.32;5.63;;;;;;;;;;4935735;29;20069;-77
2021/07/17 01:21:17;;;;;;;7.32;5.90;;;;;;;;;;4935949;29;20077;-77
2021/07/17 01:23:44;;;;;;;7.45;6.22;;;;;;;;;;4935983;29;20425;-78
2021/07/17 01:26:11;;;;;;;8.02;6.38;;;;;;;;;;4936917;29;20044;-78
2021/07/17 01:28:38;;;;;;;8.13;6.47;;;;;;;;;;4937653;29;20106;-78
2021/07/17 01:31:05;;;;;;;7.80;6.35;;;;;;;;;;4937227;29;20466;-78
2021/07/17 01:33:32;;;;;;;7.82;6.32;;;;;;;;;;4937512;29;20048;-78
2021/07/17 01:36:00;;;;;;;7.90;6.20;;;;;;;;;;4936135;29;20445;-78
2021/07/17 01:38:28;;;;;;;6.55;5.75;;;;;;;;;;4936724;29;20056;-78
2021/07/17 01:40:55;;;;;;;7.05;5.95;;;;;;;;;;4936697;29;20501;-77
2021/07/17 01:43:22;;;;;;;7.68;5.97;;;;;;;;;;4936945;29;20058;-77
2021/07/17 01:45:49;;;;;;;7.70;6.85;;;;;;;;;;4936939;29;20052;-78
2021/07/17 01:48:16;;;;;;;6.80;6.10;;;;;;;;;;4936619;29;20476;-77
2021/07/17 01:50:43;;;;;;;7.57;6.40;;;;;;;;;;4936371;29;20099;-76
2021/07/17 01:53:13;;;;;;;8.32;6.45;;;;;;;;;;4935280;29;20048;-77
2021/07/17 01:55:42;;;;;;;7.43;6.65;;;;;;;;;;4934542;29;20504;-77
2021/07/17 01:58:09;;;;;;;8.73;7.07;;;;;;;;;;4934949;29;20048;-77
2021/07/17 02:00:36;;;;;;;9.25;7.63;;;;;;;;;;4935229;29;20059;-77
2021/07/17 02:03:05;;;;;;;6.95;6.25;;;;;;;;;;4935351;29;20055;-76
2021/07/17 02:05:32;;;;;;;9.52;7.00;;;;;;;;;;4934730;29;20497;-77
2021/07/17 02:08:00;;;;;;;7.93;7.13;;;;;;;;;;4934601;29;20055;-76
2021/07/17 02:10:29;;;;;;;9.65;7.30;;;;;;;;;;4934776;29;20055;-76
2021/07/17 02:12:59;;;;;;;8.05;7.03;;;;;;;;;;4934737;29;20104;-77
2021/07/17 02:15:26;;;;;;;7.68;6.88;;;;;;;;;;4933927;29;20052;-76
2021/07/17 02:17:53;;;;;;;8.77;7.28;;;;;;;;;;4934769;29;20047;-76
2021/07/17 02:20:20;;;;;;;8.07;7.13;;;;;;;;;;4934797;29;20102;-76
2021/07/17 02:22:47;;;;;;;9.00;7.13;;;;;;;;;;4934773;29;20052;-77
2021/07/17 02:25:14;;;;;;;8.25;7.45;;;;;;;;;;4934046;29;20146;-77
2021/07/17 02:27:41;;;;;;;9.95;8.25;;;;;;;;;;4935978;29;20114;-78
2021/07/17 02:30:11;;;;;;;8.32;7.43;;;;;;;;;;4936163;29;20044;-78
2021/07/17 02:32:38;;;;;;;9.27;7.22;;;;;;;;;;4936481;29;20126;-78
2021/07/17 02:35:06;;;;;;;8.88;7.97;;;;;;;;;;4936316;29;20048;-78
2021/07/17 02:37:33;;;;;;;10.30;7.95;;;;;;;;;;4939634;29;20110;-78
2021/07/17 02:40:00;;;;;;;9.50;7.20;;;;;;;;;;4939396;29;20114;-78
2021/07/17 02:42:27;;;;;;;8.93;7.75;;;;;;;;;;4939381;29;20100;-78
2021/07/17 02:44:53;;;;;;;9.70;8.40;;;;;;;;;;4938826;29;20056;-78
2021/07/17 02:47:21;;;;;;;8.43;7.60;;;;;;;;;;4939200;29;20130;-78
2021/07/17 02:49:48;;;;;;;8.70;7.78;;;;;;;;;;4938820;29;20497;-78
2021/07/17 02:52:15;;;;;;;8.65;7.75;;;;;;;;;;4938972;29;20055;-78
2021/07/17 02:54:42;;;;;;;9.20;7.70;;;;;;;;;;4938993;29;20079;-78
2021/07/17 02:57:08;;;;;;;8.52;7.30;;;;;;;;;;4939949;29;20047;-78
2021/07/17 02:59:35;;;;;;;9.30;7.85;;;;;;;;;;4938878;29;20048;-78
2021/07/17 03:02:02;;;;;;;9.35;8.15;;;;;;;;;;4938231;29;20043;-78
2021/07/17 03:04:30;;;;;;;8.75;7.53;;;;;;;;;;4938027;29;20688;-77
2021/07/17 03:06:56;;;;;;;8.45;6.70;;;;;;;;;;4937501;29;20659;-77
2021/07/17 03:09:23;;;;;;;7.72;6.35;;;;;;;;;;4938266;29;20052;-77
2021/07/17 03:11:50;;;;;;;9.07;7.47;;;;;;;;;;4937980;29;20103;-77
2021/07/17 03:14:17;;;;;;;8.48;7.03;;;;;;;;;;4938336;29;20103;-77
2021/07/17 03:16:43;;;;;;;7.70;6.82;;;;;;;;;;4937738;29;20075;-78
2021/07/17 03:19:10;;;;;;;8.88;7.38;;;;;;;;;;4938046;29;20103;-78
2021/07/17 03:21:39;;;;;;;8.65;7.15;;;;;;;;;;4937703;29;20107;-78
2021/07/17 03:24:06;;;;;;;9.00;7.80;;;;;;;;;;4937975;29;20398;-78
2021/07/17 03:26:34;;;;;;;10.13;7.03;;;;;;;;;;4939257;29;20115;-78
2021/07/17 03:29:00;;;;;;;9.55;7.75;;;;;;;;;;4939962;29;20044;-78
2021/07/17 03:31:27;;;;;;;7.80;7.00;;;;;;;;;;4939755;29;20052;-79
2021/07/17 03:33:55;;;;;;;9.68;7.72;;;;;;;;;;4939547;29;20099;-78
2021/07/17 03:36:21;;;;;;;10.02;7.82;;;;;;;;;;4939118;29;20043;-78
2021/07/17 03:38:50;;;;;;;9.88;7.38;;;;;;;;;;4939064;29;20095;-78
2021/07/17 03:41:17;;;;;;;8.10;7.18;;;;;;;;;;4937876;29;20180;-77
2021/07/17 03:43:44;;;;;;;9.00;8.00;;;;;;;;;;4937743;29;20047;-78
2021/07/17 03:46:10;;;;;;;8.63;7.72;;;;;;;;;;4937341;29;20477;-78
2021/07/17 03:48:37;;;;;;;9.10;8.05;;;;;;;;;;4939446;29;20494;-79
2021/07/17 03:51:04;;;;;;;9.00;7.93;;;;;;;;;;4937372;29;20103;-78
2021/07/17 03:53:31;;;;;;;10.57;8.88;;;;;;;;;;4937660;29;20107;-77
2021/07/17 03:55:59;;;;;;;10.38;7.95;;;;;;;;;;4936845;29;20052;-78
2021/07/17 03:58:26;;;;;;;10.15;9.05;;;;;;;;;;4937751;29;20044;-78
2021/07/17 04:00:53;;;;;;;9.98;8.23;;;;;;;;;;4937977;29;20102;-78
2021/07/17 04:03:22;;;;;;;9.20;7.80;;;;;;;;;;4937398;29;20048;-78
2021/07/17 04:05:49;;;;;;;9.52;8.52;;;;;;;;;;4935770;29;20047;-78
2021/07/17 04:08:16;;;;;;;9.10;8.18;;;;;;;;;;4936202;29;20450;-78
2021/07/17 04:10:42;;;;;;;10.35;8.88;;;;;;;;;;4936397;29;20099;-78
2021/07/17 04:13:10;;;;;;;10.35;8.55;;;;;;;;;;4936281;29;20122;-78
2021/07/17 04:15:37;;;;;;;10.90;9.73;;;;;;;;;;4935557;29;20107;-78
2021/07/17 04:18:04;;;;;;;9.77;8.07;;;;;;;;;;4936097;29;20052;-78
2021/07/17 04:20:31;;;;;;;9.63;8.57;;;;;;;;;;4935875;29;20079;-78
2021/07/17 04:22:58;;;;;;;10.70;9.10;;;;;;;;;;4935820;29;20099;-78
2021/07/17 04:25:24;;;;;;;10.50;8.95;;;;;;;;;;4935510;29;20489;-78
2021/07/17 04:27:51;;;;;;;9.43;8.43;;;;;;;;;;4935840;29;20047;-78
2021/07/17 04:30:19;;;;;;;10.43;9.30;;;;;;;;;;4935889;29;20102;-77
2021/07/17 04:32:46;;;;;;;12.32;9.68;;;;;;;;;;4936239;29;20497;-77
2021/07/17 04:35:13;;;;;;;13.88;10.63;;;;;;;;;;4935615;29;20052;-77
2021/07/17 04:37:40;;;;;;;12.82;10.38;;;;;;;;;;4935879;29;20509;-80
2021/07/17 04:40:08;;;;;;;12.05;10.75;;;;;;;;;;4935697;29;20056;-77
2021/07/17 04:42:35;;;;;;;13.52;11.68;;;;;;;;;;4936210;29;20055;-76
2021/07/17 04:45:01;;;;;;;14.52;12.00;;;;;;;;;;4934999;29;20063;-77
2021/07/17 04:47:29;;;;;;;13.32;11.07;;;;;;;;;;4935529;29;20044;-77
2021/07/17 04:50:02;;;;;;;13.35;11.07;;;;;;;;;;4935864;29;20051;-77
2021/07/17 04:52:28;;;;;;;14.48;11.63;;;;;;;;;;4936885;29;20064;-78
2021/07/17 04:54:55;;;;;;;17.08;12.15;;;;;;;;;;4936267;29;20099;-79
2021/07/17 04:57:22;;;;;;;16.00;13.10;;;;;;;;;;4939352;29;20048;-77
2021/07/17 04:59:49;;;;;;;16.38;12.35;;;;;;;;;;4945604;29;20048;-77
2021/07/17 05:02:15;;;;;;;15.57;13.18;;;;;;;;;;4944729;29;20079;-77
2021/07/17 05:04:43;;;;;;;16.23;13.18;;;;;;;;;;4942906;29;20079;-78
2021/07/17 05:07:10;;;;;;;15.77;13.38;;;;;;;;;;4944184;29;20051;-78
2021/07/17 05:09:37;;;;;;;19.05;13.48;;;;;;;;;;4943038;29;20066;-78
2021/07/17 05:12:04;;;;;;;19.08;14.68;;;;;;;;;;4944066;29;20568;-78
2021/07/17 05:14:31;;;;;;;19.25;14.73;;;;;;;;;;4943904;29;20047;-77
2021/07/17 05:16:58;;;;;;;17.13;13.98;;;;;;;;;;4943157;29;20063;-77
2021/07/17 05:19:25;;;;;;;21.50;16.23;;;;;;;;;;4945319;29;20044;-77
2021/07/17 05:21:53;;;;;;;19.65;14.57;;;;;;;;;;4944753;29;20048;-77
2021/07/17 05:24:20;;;;;;;21.52;16.55;;;;;;;;;;4945322;29;20047;-77
2021/07/17 05:26:46;;;;;;;23.30;17.48;;;;;;;;;;4942069;29;20051;-78
2021/07/17 05:29:13;;;;;;;23.95;17.65;;;;;;;;;;4945036;29;20044;-78
2021/07/17 05:31:40;;;;;;;25.45;17.75;;;;;;;;;;4944816;29;20059;-78
2021/07/17 05:34:07;;;;;;;24.85;18.63;;;;;;;;;;4944581;29;20052;-77
2021/07/17 05:36:33;;;;;;;28.80;19.88;;;;;;;;;;4943839;29;20052;-78
2021/07/17 05:39:01;;;;;;;29.98;21.25;;;;;;;;;;4945478;29;20098;-78
2021/07/17 05:41:28;;;;;;;30.77;20.35;;;;;;;;;;4946102;29;20102;-77
2021/07/17 05:43:55;;;;;;;28.13;18.88;;;;;;;;;;4945335;29;20075;-78
2021/07/17 05:46:22;;;;;;;32.08;21.85;;;;;;;;;;4945197;29;20047;-77
2021/07/17 05:48:48;;;;;;;28.77;20.73;;;;;;;;;;4947180;29;20060;-77
2021/07/17 05:51:15;;;;;;;31.10;21.52;;;;;;;;;;4948534;29;20567;-77
2021/07/17 05:53:42;;;;;;;30.42;20.90;;;;;;;;;;4946719;29;20056;-78
2021/07/17 05:56:10;;;;;;;28.92;20.50;;;;;;;;;;4942430;29;20094;-77
2021/07/17 05:58:37;;;;;;;27.30;19.60;;;;;;;;;;4937984;29;20052;-77
2021/07/17 06:01:04;;;;;;;29.08;21.15;;;;;;;;;;4935287;29;20047;-77
2021/07/17 06:03:30;;;;;;;26.25;17.73;;;;;;;;;;4936191;29;20111;-78
2021/07/17 06:05:57;;;;;;;27.88;20.55;;;;;;;;;;4937533;29;20048;-75
2021/07/17 06:08:24;;;;;;;29.75;21.40;;;;;;;;;;4935628;29;20052;-77
2021/07/17 06:10:51;;;;;;;27.40;20.65;;;;;;;;;;4938590;29;20051;-77
2021/07/17 06:13:19;;;;;;;30.60;20.00;;;;;;;;;;4939816;29;20585;-77
2021/07/17 06:15:46;;;;;;;29.92;19.73;;;;;;;;;;4938354;29;20083;-78
2021/07/17 06:18:12;;;;;;;30.08;21.48;;;;;;;;;;4939167;29;20454;-77
2021/07/17 06:20:39;;;;;;;31.52;20.40;;;;;;;;;;4939226;29;20052;-77
2021/07/17 06:23:06;;;;;;;30.27;20.00;;;;;;;;;;4939375;29;20128;-77
2021/07/17 06:25:33;;;;;;;34.25;21.67;;;;;;;;;;4938687;29;20541;-77
2021/07/17 06:27:59;;;;;;;30.95;20.90;;;;;;;;;;4938344;29;20108;-77
2021/07/17 06:30:28;;;;;;;30.10;21.83;;;;;;;;;;4939468;29;20044;-77
2021/07/17 06:32:54;;;;;;;31.25;20.67;;;;;;;;;;4938915;29;20131;-77
2021/07/17 06:35:21;;;;;;;28.25;20.50;;;;;;;;;;4938286;29;20448;-77
2021/07/17 06:37:48;;;;;;;28.98;20.33;;;;;;;;;;4939226;29;20051;-77
2021/07/17 06:40:16;;;;;;;29.52;20.95;;;;;;;;;;4940845;29;20114;-78
2021/07/17 06:42:44;;;;;;;28.13;19.08;;;;;;;;;;4941463;29;20072;-78
2021/07/17 06:45:11;;;;;;;32.63;21.45;;;;;;;;;;4940849;29;20051;-78
2021/07/17 06:47:40;;;;;;;31.17;21.33;;;;;;;;;;4957626;23;20109;-75
2021/07/17 06:50:07;;;;;;;29.00;20.20;;;;;;;;;;4956902;29;20118;-74
2021/07/17 06:52:35;;;;;;;33.42;22.63;;;;;;;;;;4956910;29;20051;-73
2021/07/17 06:55:01;;;;;;;29.52;20.65;;;;;;;;;;4956162;29;20118;-73
2021/07/17 06:57:28;;;;;;;29.05;20.52;;;;;;;;;;4949557;28;20055;-74
2021/07/17 06:59:55;;;;;;;28.80;21.02;;;;;;;;;;4937770;29;20052;-75
2021/07/17 07:02:21;;;;;;;30.52;20.77;;;;;;;;;;4937220;29;20048;-75
2021/07/17 07:04:49;;;;;;;32.00;21.10;;;;;;;;;;4936721;29;20146;-75
2021/07/17 07:07:16;;;;;;;31.77;21.45;;;;;;;;;;4937542;29;20052;-75
2021/07/17 07:09:43;;;;;;;31.65;20.98;;;;;;;;;;4937497;29;20059;-75
2021/07/17 07:12:10;;;;;;;31.35;22.02;;;;;;;;;;4937340;29;20047;-75
2021/07/17 07:14:36;;;;;;;29.98;19.75;;;;;;;;;;4937258;29;20131;-74
2021/07/17 07:17:03;;;;;;;30.90;20.58;;;;;;;;;;4936766;29;20047;-74
2021/07/17 07:19:30;;;;;;;30.92;20.63;;;;;;;;;;4937193;29;20108;-74
2021/07/17 07:21:58;;;;;;;31.83;20.98;;;;;;;;;;4936870;29;20052;-74
2021/07/17 07:24:25;;;;;;;31.00;22.75;;;;;;;;;;4936732;29;20572;-76
2021/07/17 07:26:53;;;;;;;30.90;21.83;;;;;;;;;;4935936;29;20420;-74
2021/07/17 07:29:19;;;;;;;29.98;20.88;;;;;;;;;;4943173;29;20051;-76
2021/07/17 07:31:46;;;;;;;31.90;20.90;;;;;;;;;;4943890;29;20126;-79
2021/07/17 07:34:13;;;;;;;30.58;20.00;;;;;;;;;;4943078;29;20107;-79
2021/07/17 07:36:40;;;;;;;28.95;19.75;;;;;;;;;;4942684;29;20099;-80
2021/07/17 07:39:08;;;;;;;27.75;20.15;;;;;;;;;;4942669;29;20106;-85
2021/07/17 07:41:35;;;;;;;35.67;21.33;;;;;;;;;;4942133;29;20048;-79
2021/07/17 07:44:02;;;;;;;33.17;20.13;;;;;;;;;;4938901;29;20051;-76
2021/07/17 07:46:31;;;;;;;29.05;20.65;;;;;;;;;;4941263;29;20051;-81
2021/07/17 07:48:58;;;;;;;28.48;19.92;;;;;;;;;;4943086;29;20055;-79
2021/07/17 07:51:24;;;;;;;28.83;19.77;;;;;;;;;;4942197;29;20047;-76
2021/07/17 07:53:55;;;;;;;31.13;19.95;;;;;;;;;;4937708;29;20071;-76
2021/07/17 07:56:23;;;;;;;30.08;19.70;;;;;;;;;;4938605;29;20512;-77
2021/07/17 07:58:50;;;;;;;28.70;19.85;;;;;;;;;;4937722;29;20103;-76
2021/07/17 08:01:16;;;;;;;30.15;20.42;;;;;;;;;;4936942;29;20501;-76
2021/07/17 08:03:43;;;;;;;27.23;18.83;;;;;;;;;;4938328;29;20048;-78
2021/07/17 08:06:10;;;;;;;28.73;19.67;;;;;;;;;;4938499;29;20052;-75
2021/07/17 08:08:37;;;;;;;24.77;17.48;;;;;;;;;;4937668;29;20055;-77
2021/07/17 08:11:04;;;;;;;27.48;18.58;;;;;;;;;;4936538;29;20044;-76
2021/07/17 08:13:32;;;;;;;29.15;19.50;;;;;;;;;;4936687;29;20111;-74
2021/07/17 08:16:01;;;;;;;27.73;19.40;;;;;;;;;;4937743;29;20043;-77
2021/07/17 08:18:28;;;;;;;28.75;19.73;;;;;;;;;;4945461;29;20079;-75
2021/07/17 08:20:56;;;;;;;28.88;21.63;;;;;;;;;;4949605;29;20036;-76
2021/07/17 08:23:23;;;;;;;24.38;19.58;;;;;;;;;;4955145;28;20047;-77
2021/07/17 08:25:50;;;;;;;29.60;20.25;;;;;;;;;;4945195;29;20047;-77
2021/07/17 08:28:17;;;;;;;28.08;20.15;;;;;;;;;;4939625;29;20103;-76
2021/07/17 08:30:45;;;;;;;30.75;19.95;;;;;;;;;;4939136;29;20043;-76
2021/07/17 08:33:12;;;;;;;27.80;19.13;;;;;;;;;;4935852;29;20500;-75
2021/07/17 08:35:39;;;;;;;29.05;20.27;;;;;;;;;;4935443;29;20099;-75
2021/07/17 08:38:06;;;;;;;25.17;19.30;;;;;;;;;;4935277;29;20051;-75
2021/07/17 08:40:32;;;;;;;27.73;19.33;;;;;;;;;;4936014;29;20056;-76
2021/07/17 08:42:59;;;;;;;28.52;20.20;;;;;;;;;;4935570;29;20051;-76
2021/07/17 08:45:26;;;;;;;26.25;19.70;;;;;;;;;;4934947;29;20496;-76
2021/07/17 08:47:56;;;;;;;26.85;20.02;;;;;;;;;;4935200;29;20086;-76
2021/07/17 08:50:25;;;;;;;27.75;18.77;;;;;;;;;;4935398;29;20063;-76
2021/07/17 08:52:53;;;;;;;28.38;21.58;;;;;;;;;;4935119;29;20059;-76
2021/07/17 08:55:20;;;;;;;28.65;19.95;;;;;;;;;;4935951;29;20067;-77
2021/07/17 08:57:46;;;;;;;25.42;20.02;;;;;;;;;;4935413;29;20047;-76
2021/07/17 09:00:17;;;;;;;24.77;19.20;;;;;;;;;;4935347;29;20460;-76
2021/07/17 09:02:46;;;;;;;29.17;21.13;;;;;;;;;;4935825;29;20107;-77
2021/07/17 09:05:16;;;;;;;24.92;19.00;;;;;;;;;;4934426;29;20051;-76
2021/07/17 09:07:43;;;;;;;26.52;19.40;;;;;;;;;;4935473;29;20107;-77
2021/07/17 09:10:30;;;;;;;28.13;21.13;;;;;;;;;;4935390;29;20111;-77
2021/07/17 09:13:08;;;;;;;27.17;19.00;;;;;;;;;;4935253;29;20055;-77
2021/07/17 09:15:35;;;;;;;25.83;19.70;;;;;;;;;;4935049;29;20052;-76
2021/07/17 09:18:02;;;;;;;24.13;18.23;;;;;;;;;;4935847;29;20055;-76
2021/07/17 09:20:30;;;;;;;21.65;17.55;;;;;;;;;;4935128;29;20497;-76
2021/07/17 09:22:58;;;;;;;22.05;17.10;;;;;;;;;;4935338;29;20052;-76
2021/07/17 09:25:36;;;;;;;24.27;17.25;;;;;;;;;;4934257;29;20457;-76
2021/07/17 09:28:21;;;;;;;20.90;16.58;;;;;;;;;;4934815;29;20057;-76
2021/07/17 09:30:49;;;;;;;22.85;16.15;;;;;;;;;;4935265;29;20051;-76
2021/07/17 09:33:17;;;;;;;22.88;17.20;;;;;;;;;;4935154;29;20052;-75
2021/07/17 09:35:47;;;;;;;20.63;16.23;;;;;;;;;;4934174;29;20051;-77
2021/07/17 09:38:15;;;;;;;23.05;17.55;;;;;;;;;;4934468;29;20086;-75
2021/07/17 09:40:45;;;;;;;21.42;17.13;;;;;;;;;;4934765;29;20632;-76
2021/07/17 09:43:12;;;;;;;20.25;16.25;;;;;;;;;;4934652;29;20505;-77
2021/07/17 09:45:40;;;;;;;23.67;16.58;;;;;;;;;;4937986;29;20497;-77
2021/07/17 09:48:28;;;;;;;22.17;16.05;;;;;;;;;;4938750;29;20044;-75
2021/07/17 09:50:57;;;;;;;20.23;14.82;;;;;;;;;;4938627;29;20477;-75
2021/07/17 09:53:41;;;;;;;20.77;15.35;;;;;;;;;;4938645;29;20095;-76
2021/07/17 09:56:10;;;;;;;20.73;15.63;;;;;;;;;;4937997;29;20416;-75
2021/07/17 09:58:38;;;;;;;20.33;15.60;;;;;;;;;;4938762;29;20043;-76
2021/07/17 10:01:30;;;;;;;22.33;17.52;;;;;;;;;;4938473;29;20413;-77
2021/07/17 10:04:06;;;;;;;20.52;15.43;;;;;;;;;;4938618;29;20457;-77
2021/07/17 10:06:44;;;;;;;21.13;15.07;;;;;;;;;;4937659;29;20052;-76
2021/07/17 10:09:31;;;;;;;20.13;15.23;;;;;;;;;;4938369;29;20091;-77
2021/07/17 10:12:02;;;;;;;20.70;15.63;;;;;;;;;;4938322;29;20111;-76
2021/07/17 10:14:33;;;;;;;19.00;14.88;;;;;;;;;;4939288;29;20146;-77
2021/07/17 10:17:06;;;;;;;20.17;16.05;;;;;;;;;;4938879;29;20058;-75
2021/07/17 10:19:34;;;;;;;20.52;15.48;;;;;;;;;;4938488;29;20055;-75
2021/07/17 10:22:02;;;;;;;20.85;15.40;;;;;;;;;;4938452;29;20450;-77
2021/07/17 10:24:30;;;;;;;20.88;15.90;;;;;;;;;;4937905;29;20051;-77
2021/07/17 10:26:58;;;;;;;23.25;16.70;;;;;;;;;;4938220;29;20469;-77
2021/07/17 10:29:27;;;;;;;21.40;16.38;;;;;;;;;;4938252;29;20047;-75
2021/07/17 10:31:55;;;;;;;20.70;15.63;;;;;;;;;;4938558;29;20109;-76
2021/07/17 10:34:23;;;;;;;33.30;21.92;;;;;;;;;;4932739;29;20055;-77
2021/07/17 10:37:02;;;;;;;24.58;16.38;;;;;;;;;;4937412;29;20505;-77
2021/07/17 10:39:32;;;;;;;24.08;16.50;;;;;;;;;;4938266;29;20043;-76
2021/07/17 10:42:00;;;;;;;23.10;16.27;;;;;;;;;;4938295;29;20126;-77
2021/07/17 10:44:45;;;;;;;20.90;16.67;;;;;;;;;;4938706;29;20044;-77
2021/07/17 10:47:13;;;;;;;21.80;16.08;;;;;;;;;;4938443;29;20115;-77
2021/07/17 10:49:46;;;;;;;23.50;16.92;;;;;;;;;;4939166;29;20076;-77
2021/07/17 10:52:14;;;;;;;21.80;15.20;;;;;;;;;;4936066;29;20043;-77
2021/07/17 10:54:42;;;;;;;24.08;16.15;;;;;;;;;;4937237;29;20051;-75
2021/07/17 10:57:09;;;;;;;25.52;16.17;;;;;;;;;;4937410;29;20048;-77
2021/07/17 10:59:44;;;;;;;26.02;16.42;;;;;;;;;;4937751;29;20107;-77
2021/07/17 11:02:13;;;;;;;23.70;16.33;;;;;;;;;;4935117;29;20059;-76
2021/07/17 11:04:48;;;;;;;24.83;16.77;;;;;;;;;;4937581;29;20051;-76
2021/07/17 11:07:40;;;;;;;26.00;17.75;;;;;;;;;;4937558;29;20048;-77
2021/07/17 11:10:18;;;;;;;21.55;15.90;;;;;;;;;;4937056;29;20556;-76
2021/07/17 11:13:09;;;;;;;25.83;16.88;;;;;;;;;;4937116;29;20052;-76
2021/07/17 11:15:46;;;;;;;25.30;15.98;;;;;;;;;;4935010;29;20091;-77
2021/07/17 11:18:34;;;;;;;23.58;17.42;;;;;;;;;;4936860;29;20048;-76
2021/07/17 11:21:03;;;;;;;23.88;16.58;;;;;;;;;;4937001;29;20151;-77
2021/07/17 11:23:44;;;;;;;21.73;15.15;;;;;;;;;;4934242;29;20043;-76
2021/07/17 11:26:18;;;;;;;23.17;15.95;;;;;;;;;;4933816;29;20052;-76
2021/07/17 11:29:02;;;;;;;27.63;17.10;;;;;;;;;;4936620;29;20048;-77
2021/07/17 11:31:56;;;;;;;24.17;17.20;;;;;;;;;;4936900;29;20052;-76
2021/07/17 11:34:44;;;;;;;20.27;15.57;;;;;;;;;;4935958;29;20054;-77
2021/07/17 11:37:17;;;;;;;24.50;17.38;;;;;;;;;;4934025;29;20122;-77
2021/07/17 11:39:48;;;;;;;27.45;16.73;;;;;;;;;;4936492;29;20047;-76
2021/07/17 11:42:18;;;;;;;22.58;16.23;;;;;;;;;;4936401;29;20079;-77
2021/07/17 11:44:46;;;;;;;28.58;17.80;;;;;;;;;;4942645;29;20071;-76
2021/07/17 11:47:15;;;;;;;27.92;17.55;;;;;;;;;;4948699;29;20044;-76
2021/07/17 11:49:44;;;;;;;22.75;16.05;;;;;;;;;;4945839;29;20080;-76
2021/07/17 11:52:13;;;;;;;21.38;15.70;;;;;;;;;;4943641;29;20049;-77
2021/07/17 11:54:42;;;;;;;22.05;16.38;;;;;;;;;;4937128;29;20417;-77
2021/07/17 11:57:11;;;;;;;25.00;16.90;;;;;;;;;;4935966;29;20052;-77
2021/07/17 11:59:42;;;;;;;21.83;15.73;;;;;;;;;;4936149;29;20040;-77
2021/07/17 12:02:11;;;;;;;22.30;15.93;;;;;;;;;;4935982;29;20044;-77
2021/07/17 12:04:41;;;;;;;23.42;15.30;;;;;;;;;;4935601;29;20126;-77
2021/07/17 12:07:11;;;;;;;21.50;15.50;;;;;;;;;;4935163;29;20059;-77
2021/07/17 12:09:43;;;;;;;25.30;16.95;;;;;;;;;;4935423;29;20446;-77
2021/07/17 12:12:15;;;;;;;23.92;16.02;;;;;;;;;;4935764;29;20048;-77
2021/07/17 12:14:44;;;;;;;24.92;17.27;;;;;;;;;;4935112;29;20489;-77
2021/07/17 12:17:11;;;;;;;23.88;15.57;;;;;;;;;;4935756;29;20115;-77
2021/07/17 12:19:38;;;;;;;21.52;15.80;;;;;;;;;;4935720;29;20051;-77
2021/07/17 12:22:05;;;;;;;20.50;14.65;;;;;;;;;;4935311;29;20056;-77
2021/07/17 12:24:32;;;;;;;19.23;13.82;;;;;;;;;;4935189;29;20043;-78
2021/07/17 12:27:03;;;;;;;20.17;14.70;;;;;;;;;;4935195;29;20177;-77
2021/07/17 12:29:35;;;;;;;18.58;13.32;;;;;;;;;;4934960;29;20051;-77
2021/07/17 12:32:04;;;;;;;19.27;14.88;;;;;;;;;;4935321;29;20067;-77
2021/07/17 12:34:31;;;;;;;19.52;13.90;;;;;;;;;;4933296;29;20058;-77
2021/07/17 12:36:58;;;;;;;21.38;14.32;;;;;;;;;;4934757;29;20055;-77
2021/07/17 12:39:25;;;;;;;19.67;13.82;;;;;;;;;;4935056;29;20099;-77
2021/07/17 12:41:54;;;;;;;17.65;13.75;;;;;;;;;;4934906;29;20051;-77
2021/07/17 12:44:21;;;;;;;18.02;14.35;;;;;;;;;;4935105;29;20047;-77
2021/07/17 12:46:48;;;;;;;18.33;13.32;;;;;;;;;;4931849;29;20489;-77
2021/07/17 12:49:18;;;;;;;18.02;13.95;;;;;;;;;;4931266;29;20047;-76
2021/07/17 12:51:47;;;;;;;18.02;13.77;;;;;;;;;;4934260;29;20051;-77
2021/07/17 12:54:16;;;;;;;15.93;12.95;;;;;;;;;;4932947;29;20103;-77
2021/07/17 12:56:45;;;;;;;18.35;14.30;;;;;;;;;;4934372;29;20069;-76
2021/07/17 12:59:15;;;;;;;18.08;13.13;;;;;;;;;;4935171;29;20040;-77
2021/07/17 13:01:46;;;;;;;18.48;13.98;;;;;;;;;;4937564;29;20056;-77
2021/07/17 13:04:14;;;;;;;18.38;13.73;;;;;;;;;;4936130;29;20051;-76
2021/07/17 13:06:43;;;;;;;16.25;12.77;;;;;;;;;;4934504;29;20055;-77
2021/07/17 13:09:10;;;;;;;15.70;11.80;;;;;;;;;;4935035;29;20048;-76
2021/07/17 13:11:37;;;;;;;21.67;15.98;;;;;;;;;;4935125;29;20102;-76
2021/07/17 13:14:04;;;;;;;17.92;12.80;;;;;;;;;;4935338;29;20104;-76
2021/07/17 13:16:35;;;;;;;17.30;13.23;;;;;;;;;;4934906;29;20056;-76
2021/07/17 13:19:02;;;;;;;;;;;;;;;;;;4935296;29;20052;-76
2021/07/17 13:21:38;;;;;;;17.38;11.88;;;;;;;;;;4934888;29;19923;-76
2021/07/17 13:24:08;;;;;;;16.27;12.15;;;;;;;;;;4935233;29;20052;-76
2021/07/17 13:26:37;;;;;;;14.77;11.80;;;;;;;;;;4934670;29;20452;-76
2021/07/17 13:29:16;;;;;;;17.10;12.65;;;;;;;;;;4934994;29;20057;-76
2021/07/17 13:31:49;;;;;;;15.63;11.77;;;;;;;;;;4934766;29;20103;-76
2021/07/17 13:34:17;;;;;;;14.30;11.45;;;;;;;;;;4934713;29;20504;-76
2021/07/17 13:37:13;;;;;;;15.80;12.13;;;;;;;;;;4934876;29;20126;-78
2021/07/17 13:39:52;;;;;;;15.02;12.35;;;;;;;;;;4933952;29;20055;-76
2021/07/17 13:42:20;;;;;;;13.77;11.27;;;;;;;;;;4936142;29;20047;-76
2021/07/17 13:44:48;;;;;;;18.15;11.45;;;;;;;;;;4934737;29;20119;-76
2021/07/17 13:47:16;;;;;;;17.05;12.30;;;;;;;;;;4933940;29;20051;-80
2021/07/17 13:49:44;;;;;;;15.10;12.05;;;;;;;;;;4942865;29;20039;-81
2021/07/17 13:52:33;;;;;;;15.35;11.40;;;;;;;;;;4945810;29;20091;-74
2021/07/17 13:55:03;;;;;;;15.05;11.68;;;;;;;;;;4943639;29;20052;-80
2021/07/17 13:57:38;;;;;;;15.75;12.40;;;;;;;;;;4940955;29;20048;-74
2021/07/17 14:00:08;;;;;;;13.52;10.93;;;;;;;;;;4933157;29;20098;-75
2021/07/17 14:02:35;;;;;;;14.98;12.32;;;;;;;;;;4935440;29;20091;-76
2021/07/17 14:05:04;;;;;;;17.33;12.73;;;;;;;;;;4934221;29;20090;-75
2021/07/17 14:07:31;;;;;;;16.05;11.73;;;;;;;;;;4934067;29;20048;-76
2021/07/17 14:09:58;;;;;;;17.20;13.07;;;;;;;;;;4932346;29;20119;-76
2021/07/17 14:12:26;;;;;;;17.98;12.02;;;;;;;;;;4933919;29;20498;-75
2021/07/17 14:14:53;;;;;;;14.90;11.98;;;;;;;;;;4933639;29;20579;-76
2021/07/17 14:17:20;;;;;;;14.23;11.30;;;;;;;;;;4933901;29;20054;-75
2021/07/17 14:19:47;;;;;;;12.52;10.90;;;;;;;;;;4934198;29;20048;-76
2021/07/17 14:22:15;;;;;;;14.57;11.10;;;;;;;;;;4934064;29;20074;-76
2021/07/17 14:24:42;;;;;;;14.38;12.18;;;;;;;;;;4934676;29;20075;-80
2021/07/17 14:27:08;;;;;;;15.88;12.20;;;;;;;;;;4939441;29;20047;-78
2021/07/17 14:29:37;;;;;;;16.17;11.70;;;;;;;;;;4939424;29;20580;-78
2021/07/17 14:32:05;;;;;;;13.95;11.40;;;;;;;;;;4944764;29;20083;-79
2021/07/17 14:34:32;;;;;;;14.10;11.18;;;;;;;;;;4948986;29;20044;-74